John Murtha Johnstown Cambria County Airport
KJST : now visible

Airfield :











YOU CAN JOIN US ON...

 
LOGIN :

Register | Disclaimer

   EN    FR    IT 

 









Legend :    VFR   Marginal VFR   IFR   Intensive IFR   Very Intensive IFR
Visi :
Ceiling :
>= 8 km
>= 3000ft
5 to 8 km
1000 to 3000 ft
1500m to 5 km
500 to 1000 ft
800 to 1500m
200 to 500 ft
< 800m
< 200 ft
Symbols :   Thunderstorms  Fog  Heavy snow  Heavy precipitations  Wind > 20 kt






- Airport Elevation : 2284 ft
- IATA code : JST


KJST - John Murtha Johnstown Cambria County

CURRENT METAR :
  • 291803Z AUTO 23006KT 5SM BR OVC009 03/02 A3004 RMK AO2 CIG 007V014 T00330022

EXPIRED METARs :
  • 291754Z AUTO 23008KT 5SM BR OVC012 03/02 A3004 RMK AO2 RAE30 SLP187 P0000 60001 T00330017 10056 20028 58021
  • 291701Z AUTO 22008KT 7SM -RA OVC013 03/01 A3007 RMK AO2 P0000 T00280011
  • 291654Z AUTO 21006KT 4SM -RA BR OVC015 03/01 A3007 RMK AO2 RAB28 SLP201 P0001 T00280011
  • 291607Z AUTO 21007G16KT 10SM BKN022 BKN029 OVC035 04/M01 A3008 RMK AO2 T00441011
  • 291554Z AUTO 22011G22KT 10SM FEW024 BKN032 OVC046 04/M02 A3009 RMK AO2 SLP207 T00441017

TAF KJST
Valid from the 29 at 18:00 until the 30 at 18:00 UTC


291810Z 2918/3018 24007KT 5SM -RA BR OVC007
FM300000 26006KT 2SM -DZ BR OVC003
KZOB FIR / North America



MET'MAP, your aeronautical weather chart ! - Copyright ORBIFLY December 2007 - Disclaimer

ORBIFLY MET'MAP TEAM :

Programming & Development : Alexandra Zaïnal
Original concept : Baudouin d'Aumeries
Technical & hardware support : Manuel Goepfert
Assistance : Marc-Olivier Méhu




SOURCES & CREDITS :

   NOAA       Earth
Advisory